Time;durP1;ratioP1;P1;durP2;ratioP2;P2;SDS_P1;SDS_P2;PMS_P1;PMS_P2;Temp;Humidity;BMP_temperature;BMP_pressure;BME280_temperature;BME280_humidity;BME280_pressure;Samples;Min_cycle;Max_cycle;Signal;HPM_P1;HPM_P2
2022/02/15 00:02:15;;;;;;;20.00;10.07;;;5.20;99.90;;;;;;5047808;28;20267;-80
2022/02/15 00:04:45;;;;;;;20.43;9.00;;;5.20;99.90;;;;;;5046949;28;20209;-81
2022/02/15 00:07:13;;;;;;;15.27;8.80;;;5.20;99.90;;;;;;5053007;28;20449;-80
2022/02/15 00:09:40;;;;;;;20.87;10.10;;;5.20;99.90;;;;;;5042098;28;20197;-80
2022/02/15 00:12:09;;;;;;;24.37;11.37;;;5.20;99.90;;;;;;5052626;28;20223;-80
2022/02/15 00:14:36;;;;;;;23.73;10.80;;;5.20;99.90;;;;;;5051913;28;20351;-79
2022/02/15 00:17:04;;;;;;;15.47;9.30;;;5.20;99.90;;;;;;5049809;28;20756;-80
2022/02/15 00:19:31;;;;;;;17.60;9.17;;;5.20;99.90;;;;;;5051710;28;20209;-81
2022/02/15 00:21:58;;;;;;;20.60;10.17;;;5.20;99.90;;;;;;5050280;28;20201;-80
2022/02/15 00:24:26;;;;;;;17.27;9.50;;;5.10;99.90;;;;;;5056178;28;20206;-82
2022/02/15 00:26:54;;;;;;;20.37;10.23;;;5.10;99.90;;;;;;5059317;28;20204;-81
2022/02/15 00:29:21;;;;;;;21.20;10.50;;;5.10;99.90;;;;;;5054708;28;20197;-81
2022/02/15 00:31:48;;;;;;;18.43;9.43;;;5.00;99.90;;;;;;5060693;28;20274;-83
2022/02/15 00:34:15;;;;;;;17.33;8.97;;;4.90;99.90;;;;;;5051183;28;20190;-82
2022/02/15 00:36:43;;;;;;;18.83;9.10;;;4.90;99.90;;;;;;5048255;28;20321;-81
2022/02/15 00:39:10;;;;;;;17.20;9.00;;;4.90;99.90;;;;;;5047741;28;20661;-82
2022/02/15 00:41:39;;;;;;;16.43;8.53;;;4.90;99.90;;;;;;5057351;28;20224;-81
2022/02/15 00:44:06;;;;;;;21.13;10.17;;;4.80;99.90;;;;;;5053783;28;20885;-80
2022/02/15 00:46:34;;;;;;;18.57;9.17;;;4.80;99.90;;;;;;5046703;28;20239;-80
2022/02/15 00:49:01;;;;;;;22.50;10.63;;;4.80;99.90;;;;;;5045573;28;20208;-80
2022/02/15 00:51:28;;;;;;;19.87;9.77;;;4.80;99.90;;;;;;5046770;28;20205;-80
2022/02/15 00:53:55;;;;;;;22.50;12.20;;;4.80;99.90;;;;;;5049230;28;20201;-81
2022/02/15 00:56:22;;;;;;;20.93;10.33;;;4.80;99.90;;;;;;5048571;28;20332;-80
2022/02/15 00:58:51;;;;;;;21.53;9.93;;;4.80;99.90;;;;;;5048760;28;20220;-79
2022/02/15 01:01:18;;;;;;;16.13;8.73;;;4.70;99.90;;;;;;5048977;28;20281;-81
2022/02/15 01:03:45;;;;;;;18.47;9.63;;;4.60;99.90;;;;;;5050459;28;20200;-80
2022/02/15 01:06:13;;;;;;;23.63;10.80;;;4.60;99.90;;;;;;5049120;28;20658;-80
2022/02/15 01:08:42;;;;;;;19.43;10.00;;;4.60;99.90;;;;;;5055365;28;20307;-80
2022/02/15 01:11:09;;;;;;;17.13;8.97;;;4.50;99.90;;;;;;5052116;28;20388;-81
2022/02/15 01:13:36;;;;;;;16.33;8.90;;;4.50;99.90;;;;;;5056933;28;20193;-82
2022/02/15 01:16:09;;;;;;;19.13;8.40;;;4.50;99.90;;;;;;5053211;28;20549;-80
2022/02/15 01:18:36;;;;;;;16.73;8.30;;;4.40;99.90;;;;;;5058701;28;20212;-82
2022/02/15 01:21:03;;;;;;;18.97;8.47;;;4.40;99.90;;;;;;5049348;28;20216;-80
2022/02/15 01:23:31;;;;;;;16.73;8.37;;;4.30;99.90;;;;;;5053575;28;20727;-80
2022/02/15 01:25:58;;;;;;;16.53;8.27;;;4.30;99.90;;;;;;5053513;28;20201;-81
2022/02/15 01:28:25;;;;;;;17.63;8.80;;;4.30;99.90;;;;;;5059868;28;20276;-80
2022/02/15 01:30:54;;;;;;;16.77;8.57;;;4.30;99.90;;;;;;5053159;28;20571;-80
2022/02/15 01:33:23;;;;;;;15.80;8.50;;;4.30;99.90;;;;;;5062553;28;20215;-80
2022/02/15 01:35:51;;;;;;;17.67;8.67;;;4.30;99.90;;;;;;5058816;28;20212;-81
2022/02/15 01:38:18;;;;;;;17.53;8.67;;;4.30;99.90;;;;;;5065876;28;20208;-82
2022/02/15 01:40:46;;;;;;;21.83;10.97;;;4.30;99.90;;;;;;5062005;28;20598;-81
2022/02/15 01:43:13;;;;;;;18.87;8.90;;;4.30;99.90;;;;;;5066263;28;20225;-82
2022/02/15 01:45:40;;;;;;;20.03;9.23;;;4.30;99.90;;;;;;5062815;28;20201;-81
2022/02/15 01:48:08;;;;;;;17.87;9.07;;;4.20;99.90;;;;;;5068113;28;20216;-80
2022/02/15 01:50:37;;;;;;;19.60;9.43;;;4.30;99.90;;;;;;5069255;28;20206;-81
2022/02/15 01:53:04;;;;;;;17.27;9.07;;;4.20;99.90;;;;;;5051429;28;20263;-79
2022/02/15 01:55:32;;;;;;;19.90;9.10;;;4.20;99.90;;;;;;5051561;28;20205;-80
2022/02/15 01:57:59;;;;;;;18.37;9.33;;;4.20;99.90;;;;;;5049561;28;20206;-80
2022/02/15 02:00:30;;;;;;;19.90;9.63;;;4.20;99.90;;;;;;5050936;28;20221;-80
2022/02/15 02:03:12;;;;;;;20.20;10.03;;;4.20;99.90;;;;;;5051010;28;20291;-81
2022/02/15 02:05:50;;;;;;;17.80;9.07;;;4.20;99.90;;;;;;5052057;28;20255;-81
2022/02/15 02:08:23;;;;;;;16.40;8.40;;;4.10;99.90;;;;;;5053813;28;20586;-82
2022/02/15 02:10:51;;;;;;;17.53;9.40;;;4.10;99.90;;;;;;5085645;28;20210;-82
2022/02/15 02:13:38;;;;;;;16.20;8.60;;;4.40;99.90;;;;;;5055680;28;20500;-79
2022/02/15 02:16:12;;;;;;;17.10;9.07;;;4.20;99.90;;;;;;5052988;28;20205;-80
2022/02/15 02:18:51;;;;;;;15.00;8.33;;;4.20;99.90;;;;;;5046689;28;20583;-79
2022/02/15 02:21:35;;;;;;;14.40;7.87;;;4.20;99.90;;;;;;5054688;28;20829;-80
2022/02/15 02:24:02;;;;;;;13.17;7.27;;;4.30;99.90;;;;;;5055587;28;20201;-80
2022/02/15 02:26:31;;;;;;;15.50;7.70;;;4.30;99.90;;;;;;5058338;28;20207;-80
2022/02/15 02:28:58;;;;;;;14.77;8.20;;;4.40;99.90;;;;;;5057431;28;20220;-81
2022/02/15 02:31:29;;;;;;;17.33;9.13;;;4.40;99.90;;;;;;5060697;28;20286;-82
2022/02/15 02:34:07;;;;;;;19.83;9.70;;;4.50;99.90;;;;;;5055207;28;20623;-81
2022/02/15 02:36:44;;;;;;;18.53;9.57;;;4.30;99.90;;;;;;5047225;28;20206;-82
2022/02/15 02:39:15;;;;;;;17.50;8.93;;;4.30;99.90;;;;;;5049296;28;20214;-81
2022/02/15 02:41:43;;;;;;;15.73;8.60;;;4.30;99.90;;;;;;5066062;28;20295;-81
2022/02/15 02:44:10;;;;;;;19.47;9.50;;;4.30;99.90;;;;;;5060876;28;20214;-81
2022/02/15 02:46:40;;;;;;;18.00;9.07;;;4.30;99.90;;;;;;5066130;28;20209;-81
2022/02/15 02:49:10;;;;;;;17.97;9.47;;;3.70;99.90;;;;;;5053904;28;20202;-82
2022/02/15 02:51:39;;;;;;;18.73;9.00;;;4.40;99.90;;;;;;5041189;28;20206;-80
2022/02/15 02:54:11;;;;;;;19.43;9.20;;;4.40;99.90;;;;;;5050187;28;20312;-80
2022/02/15 02:56:59;;;;;;;18.73;9.83;;;4.40;99.90;;;;;;5051114;28;20530;-80
2022/02/15 02:59:31;;;;;;;21.23;9.60;;;4.40;99.90;;;;;;5037618;28;20213;-81
2022/02/15 03:02:03;;;;;;;17.47;8.83;;;4.80;99.90;;;;;;5053037;28;20300;-82
2022/02/15 03:04:32;;;;;;;15.87;8.90;;;4.50;99.90;;;;;;5050786;28;20213;-82
2022/02/15 03:07:02;;;;;;;18.03;9.23;;;4.50;99.90;;;;;;5056003;28;20197;-82
2022/02/15 03:09:31;;;;;;;16.43;8.40;;;4.40;99.90;;;;;;5082039;28;20296;-81
2022/02/15 03:11:59;;;;;;;14.93;8.30;;;5.40;99.90;;;;;;5057212;28;20196;-81
2022/02/15 03:14:26;;;;;;;17.43;9.07;;;4.50;99.90;;;;;;5052901;28;20205;-82
2022/02/15 03:16:57;;;;;;;17.20;9.17;;;4.50;99.90;;;;;;5049504;28;20510;-80
2022/02/15 03:19:25;;;;;;;14.93;8.43;;;4.50;99.90;;;;;;5051433;28;20229;-80
2022/02/15 03:21:54;;;;;;;14.30;8.17;;;4.90;99.90;;;;;;5050254;28;20228;-81
2022/02/15 03:24:21;;;;;;;14.63;8.40;;;4.60;99.90;;;;;;5055394;28;20247;-80
2022/02/15 03:26:56;;;;;;;14.90;7.43;;;4.60;99.90;;;;;;5062389;28;20203;-81
2022/02/15 03:29:24;;;;;;;13.50;7.17;;;4.60;99.90;;;;;;5060439;28;20584;-82
2022/02/15 03:31:52;;;;;;;15.33;7.70;;;4.70;99.90;;;;;;5056974;28;20727;-81
2022/02/15 03:34:21;;;;;;;15.87;7.60;;;4.70;99.90;;;;;;5049106;28;20692;-80
2022/02/15 03:36:48;;;;;;;19.13;8.57;;;4.70;99.90;;;;;;5066633;28;20255;-80
2022/02/15 03:39:15;;;;;;;13.87;7.90;;;4.70;99.90;;;;;;5063281;28;20720;-82
2022/02/15 03:44:35;;;;;;;14.33;8.07;;;4.70;99.90;;;;;;5057175;28;20207;-81
2022/02/15 03:47:07;;;;;;;23.07;12.07;;;4.70;99.90;;;;;;5057298;28;20217;-80
2022/02/15 03:49:39;;;;;;;16.40;9.03;;;4.70;99.90;;;;;;5047673;28;20225;-80
2022/02/15 03:52:08;;;;;;;16.13;9.17;;;4.70;99.90;;;;;;5084662;28;20213;-82
2022/02/15 03:54:35;;;;;;;16.87;8.83;;;4.80;99.90;;;;;;5049824;28;20198;-81
2022/02/15 03:57:07;;;;;;;21.20;9.40;;;4.80;99.90;;;;;;5046937;28;20193;-80
2022/02/15 03:59:36;;;;;;;15.93;9.07;;;3.60;99.90;;;;;;5048803;28;20315;-80
2022/02/15 04:02:06;;;;;;;19.30;9.53;;;4.70;99.90;;;;;;5048546;28;20420;-80
2022/02/15 04:04:36;;;;;;;20.97;8.77;;;4.70;99.90;;;;;;5048927;28;20747;-80
2022/02/15 04:07:04;;;;;;;15.20;7.70;;;4.70;99.90;;;;;;5050679;28;20209;-80
2022/02/15 04:09:32;;;;;;;12.77;7.03;;;4.70;99.90;;;;;;5051781;28;20289;-81
2022/02/15 04:12:00;;;;;;;17.10;8.77;;;4.70;99.90;;;;;;5052596;28;20660;-81
2022/02/15 04:14:36;;;;;;;18.30;9.10;;;4.70;99.90;;;;;;5052730;28;20224;-80
2022/02/15 04:17:04;;;;;;;14.30;8.23;;;4.70;99.90;;;;;;5057391;28;20208;-82
2022/02/15 04:19:32;;;;;;;18.33;8.77;;;4.70;99.90;;;;;;5051647;28;20316;-79
2022/02/15 04:22:01;;;;;;;17.03;8.67;;;4.70;99.90;;;;;;5057968;28;20216;-80
2022/02/15 04:24:31;;;;;;;16.60;9.33;;;4.70;99.90;;;;;;5046150;28;20387;-80
2022/02/15 04:26:58;;;;;;;15.13;7.67;;;4.60;99.90;;;;;;5061863;28;20294;-80
2022/02/15 04:29:26;;;;;;;16.70;8.07;;;4.70;99.90;;;;;;5055347;28;20647;-80
2022/02/15 04:31:58;;;;;;;17.20;8.13;;;4.70;99.90;;;;;;5061816;28;20235;-83
2022/02/15 04:34:30;;;;;;;18.83;8.87;;;4.70;99.90;;;;;;5055388;28;20674;-81
2022/02/15 04:37:00;;;;;;;19.87;9.57;;;4.70;99.90;;;;;;5062450;28;20213;-81
2022/02/15 04:39:29;;;;;;;20.07;10.20;;;4.70;99.90;;;;;;5056386;28;20228;-80
2022/02/15 04:42:06;;;;;;;18.63;9.33;;;4.70;99.90;;;;;;5048317;28;20228;-81
2022/02/15 04:44:34;;;;;;;17.07;8.40;;;4.80;99.90;;;;;;5057402;28;20285;-80
2022/02/15 04:47:04;;;;;;;14.07;7.40;;;4.80;99.90;;;;;;5063107;28;20254;-81
2022/02/15 04:49:32;;;;;;;17.97;8.00;;;4.80;99.90;;;;;;5040088;28;20243;-80
2022/02/15 04:52:03;;;;;;;19.03;10.00;;;4.80;99.90;;;;;;5081975;28;20637;-80
2022/02/15 04:54:34;;;;;;;18.17;9.13;;;4.80;99.90;;;;;;5041172;28;20252;-82
2022/02/15 04:57:01;;;;;;;15.97;9.00;;;4.80;99.90;;;;;;5048096;28;20209;-80
2022/02/15 04:59:31;;;;;;;20.23;10.37;;;4.80;99.90;;;;;;5048254;28;20768;-81
2022/02/15 05:01:59;;;;;;;18.53;10.07;;;4.80;99.90;;;;;;5049521;28;20202;-81
2022/02/15 05:07:15;;;;;;;22.87;10.80;;;4.70;99.90;;;;;;5052318;28;20200;-81
2022/02/15 05:09:43;;;;;;;22.17;10.23;;;4.70;99.90;;;;;;5049597;28;20206;-81
2022/02/15 05:12:16;;;;;;;19.67;9.80;;;4.70;99.90;;;;;;5055024;28;20209;-82
2022/02/15 05:14:45;;;;;;;20.93;10.33;;;4.70;99.90;;;;;;5080753;28;20615;-81
2022/02/15 05:17:21;;;;;;;36.03;15.67;;;5.50;99.90;;;;;;5056750;28;20569;-81
2022/02/15 05:19:54;;;;;;;31.20;14.50;;;4.70;99.90;;;;;;5051716;28;20229;-81
2022/02/15 05:22:26;;;;;;;26.43;12.70;;;4.70;99.90;;;;;;5053835;28;20511;-81
2022/02/15 05:24:56;;;;;;;31.83;14.77;;;4.70;99.90;;;;;;5047400;28;20778;-80
2022/02/15 05:27:24;;;;;;;26.77;13.30;;;4.70;99.90;;;;;;5055216;28;20255;-79
2022/02/15 05:29:54;;;;;;;38.00;16.13;;;4.80;99.90;;;;;;5058313;28;20212;-80
2022/02/15 05:32:33;;;;;;;28.10;13.80;;;4.80;99.90;;;;;;5057983;28;20236;-81
2022/02/15 05:35:06;;;;;;;22.47;10.93;;;4.80;99.90;;;;;;5062382;28;20359;-81
2022/02/15 05:37:38;;;;;;;20.80;10.70;;;4.80;99.90;;;;;;5058615;28;20243;-80
2022/02/15 05:40:11;;;;;;;18.93;10.17;;;4.80;99.90;;;;;;5056579;28;20719;-79
2022/02/15 05:42:49;;;;;;;17.60;9.20;;;4.80;99.90;;;;;;5062561;28;20193;-80
2022/02/15 05:45:16;;;;;;;17.90;9.10;;;4.80;99.90;;;;;;5060134;28;20213;-80
2022/02/15 05:48:02;;;;;;;20.37;9.67;;;4.70;99.90;;;;;;5037454;28;20359;-81
2022/02/15 05:50:50;;;;;;;20.40;9.50;;;4.70;99.90;;;;;;5036539;28;20288;-79
2022/02/15 05:53:28;;;;;;;19.73;10.03;;;4.70;99.90;;;;;;5061595;28;20239;-81
2022/02/15 05:56:01;;;;;;;22.73;9.57;;;4.80;99.90;;;;;;5040837;28;20251;-79
2022/02/15 05:58:38;;;;;;;23.50;10.97;;;4.80;99.90;;;;;;5042305;28;20592;-81
2022/02/15 06:01:12;;;;;;;24.17;12.63;;;4.90;99.90;;;;;;5065959;28;20299;-81
2022/02/15 06:06:27;;;;;;;31.67;14.03;;;4.90;99.90;;;;;;5055510;28;20621;-81
2022/02/15 06:08:58;;;;;;;23.13;12.10;;;4.90;99.90;;;;;;5064634;28;20641;-83
2022/02/15 06:11:26;;;;;;;20.90;10.97;;;5.80;99.90;;;;;;5066328;28;20227;-81
2022/02/15 06:13:55;;;;;;;19.10;9.70;;;4.90;99.90;;;;;;5051074;28;20201;-78
2022/02/15 06:16:26;;;;;;;17.30;8.67;;;4.90;99.90;;;;;;5048157;28;20213;-81
2022/02/15 06:19:04;;;;;;;12.43;7.57;;;4.90;99.90;;;;;;5052770;28;20201;-81
2022/02/15 06:21:38;;;;;;;15.30;8.20;;;4.90;99.90;;;;;;5052127;28;20301;-81
2022/02/15 06:24:13;;;;;;;12.70;6.70;;;4.90;99.90;;;;;;5052957;28;20611;-82
2022/02/15 06:26:40;;;;;;;11.83;6.83;;;4.90;99.90;;;;;;5053997;28;20267;-85
2022/02/15 06:29:31;;;;;;;16.40;8.67;;;4.90;99.90;;;;;;5054462;28;20202;-80
2022/02/15 06:32:04;;;;;;;12.87;7.57;;;4.90;99.90;;;;;;5052617;28;20757;-79
2022/02/15 06:34:32;;;;;;;11.77;6.77;;;4.90;99.90;;;;;;5054398;28;20228;-81
2022/02/15 06:37:07;;;;;;;13.73;7.23;;;4.90;99.90;;;;;;5088228;28;20205;-80
2022/02/15 06:39:39;;;;;;;32.93;14.93;;;5.00;99.90;;;;;;5051000;28;20197;-80
2022/02/15 06:42:10;;;;;;;28.67;13.33;;;5.00;99.90;;;;;;5051329;28;20228;-81
2022/02/15 06:44:37;;;;;;;23.00;11.87;;;5.00;99.90;;;;;;5063371;28;20278;-79
2022/02/15 06:47:06;;;;;;;21.50;10.87;;;5.00;99.90;;;;;;5055971;28;20206;-79
2022/02/15 06:49:33;;;;;;;25.73;11.87;;;5.00;99.90;;;;;;5058893;28;20217;-78
2022/02/15 06:52:27;;;;;;;18.37;9.57;;;5.00;99.90;;;;;;5042280;28;20208;-80
2022/02/15 06:55:08;;;;;;;19.20;8.80;;;5.10;99.90;;;;;;5049919;28;20215;-79
2022/02/15 06:57:41;;;;;;;15.83;7.97;;;5.10;99.90;;;;;;5052885;28;20570;-80
2022/02/15 07:00:15;;;;;;;16.13;8.57;;;5.20;99.90;;;;;;5048038;28;20218;-79
2022/02/15 07:02:47;;;;;;;18.20;8.23;;;5.20;99.90;;;;;;5050142;28;20211;-80
2022/02/15 07:05:17;;;;;;;18.43;9.03;;;5.20;99.90;;;;;;5075737;28;20206;-80
2022/02/15 07:07:52;;;;;;;15.53;7.80;;;5.20;99.90;;;;;;5082946;28;20228;-80
2022/02/15 07:10:24;;;;;;;16.20;8.37;;;5.20;99.90;;;;;;5054392;28;20688;-80
2022/02/15 07:12:54;;;;;;;17.03;8.77;;;5.20;99.90;;;;;;5054761;28;20216;-80
2022/02/15 07:15:29;;;;;;;16.40;8.70;;;5.20;99.90;;;;;;5055187;28;20290;-80
2022/02/15 07:18:04;;;;;;;28.90;12.40;;;5.20;99.90;;;;;;5050634;28;20537;-79
2022/02/15 07:20:41;;;;;;;24.23;10.60;;;5.20;99.90;;;;;;5049563;28;20221;-79
2022/02/15 07:23:47;;;;;;;25.67;10.63;;;5.30;99.90;;;;;;5047261;28;20213;-79
2022/02/15 07:26:32;;;;;;;25.43;11.07;;;5.30;99.90;;;;;;5075429;28;20356;-79
2022/02/15 07:29:02;;;;;;;29.50;12.63;;;5.30;99.90;;;;;;5060376;28;20555;-79
2022/02/15 07:31:36;;;;;;;25.20;12.17;;;5.20;99.90;;;;;;5055002;28;20593;-79
2022/02/15 07:34:03;;;;;;;24.37;11.13;;;5.20;99.90;;;;;;5053380;28;20205;-80
2022/02/15 07:36:37;;;;;;;25.50;11.93;;;5.20;99.90;;;;;;5064967;28;20227;-81
2022/02/15 07:39:07;;;;;;;19.17;9.70;;;5.20;99.90;;;;;;5065217;28;20717;-80
2022/02/15 07:41:34;;;;;;;20.60;9.20;;;5.20;99.90;;;;;;5053452;28;20206;-80
2022/02/15 07:44:04;;;;;;;23.60;11.03;;;5.20;99.90;;;;;;5054292;28;20189;-80
2022/02/15 07:46:37;;;;;;;21.20;9.57;;;5.30;99.90;;;;;;5060338;28;20197;-80
2022/02/15 07:49:04;;;;;;;14.50;8.00;;;5.30;99.90;;;;;;5057563;28;20201;-80
2022/02/15 07:51:31;;;;;;;17.80;8.37;;;5.30;99.90;;;;;;5037526;28;20181;-79
2022/02/15 07:53:58;;;;;;;15.80;8.33;;;5.40;99.90;;;;;;5050397;28;20198;-80
2022/02/15 07:56:27;;;;;;;16.23;9.07;;;5.40;99.90;;;;;;5049170;28;20212;-80
2022/02/15 07:58:54;;;;;;;18.40;9.10;;;5.40;99.90;;;;;;5050133;28;20221;-80
2022/02/15 08:01:21;;;;;;;19.07;9.13;;;5.40;99.90;;;;;;5050534;28;20224;-79
2022/02/15 08:03:50;;;;;;;17.13;8.63;;;5.30;99.90;;;;;;5044885;28;20206;-79
2022/02/15 08:06:17;;;;;;;16.87;8.87;;;5.40;99.90;;;;;;5049818;28;20224;-80
2022/02/15 08:08:45;;;;;;;20.53;9.13;;;5.40;99.90;;;;;;5048656;28;20649;-81
2022/02/15 08:11:19;;;;;;;26.50;11.43;;;5.40;99.90;;;;;;5049523;28;20221;-80
2022/02/15 08:13:49;;;;;;;21.93;9.70;;;4.40;99.90;;;;;;5049153;28;20256;-80
2022/02/15 08:16:17;;;;;;;19.53;9.83;;;5.50;99.90;;;;;;5049088;28;20212;-80
2022/02/15 08:18:44;;;;;;;20.10;9.57;;;5.60;99.90;;;;;;5049014;28;20210;-80
2022/02/15 08:21:11;;;;;;;16.43;9.07;;;5.60;99.90;;;;;;5048649;28;20213;-80
2022/02/15 08:23:38;;;;;;;17.17;8.97;;;5.70;99.90;;;;;;5050909;28;20672;-80
2022/02/15 08:26:09;;;;;;;19.50;8.90;;;5.70;99.90;;;;;;5052879;28;20202;-80
2022/02/15 08:28:41;;;;;;;18.87;9.73;;;5.70;99.90;;;;;;5049143;28;20380;-80
2022/02/15 08:31:11;;;;;;;21.43;9.70;;;5.80;99.90;;;;;;5057106;28;20267;-80
2022/02/15 08:33:41;;;;;;;24.30;11.17;;;5.90;99.90;;;;;;5059501;28;20198;-80
2022/02/15 08:36:13;;;;;;;20.33;9.93;;;5.90;99.90;;;;;;5063653;28;20200;-80
2022/02/15 08:38:44;;;;;;;22.63;10.73;;;5.90;99.90;;;;;;5057016;28;20209;-80
2022/02/15 08:41:13;;;;;;;27.17;11.67;;;5.90;99.90;;;;;;5057857;28;20209;-83
2022/02/15 08:43:43;;;;;;;25.33;11.20;;;5.80;99.90;;;;;;5062441;28;20230;-80
2022/02/15 08:46:11;;;;;;;22.03;10.00;;;5.90;99.90;;;;;;5058929;28;20261;-80
2022/02/15 08:48:41;;;;;;;20.87;10.20;;;5.90;99.90;;;;;;5059152;28;20297;-81
2022/02/15 08:51:08;;;;;;;21.20;9.53;;;5.80;99.90;;;;;;5035116;28;20281;-81
2022/02/15 08:53:35;;;;;;;19.53;9.10;;;5.90;99.90;;;;;;5049453;28;20202;-80
2022/02/15 08:56:02;;;;;;;17.60;9.23;;;5.90;99.90;;;;;;5049534;28;20237;-82
2022/02/15 08:58:29;;;;;;;14.23;7.80;;;5.90;99.90;;;;;;5048998;28;20194;-82
2022/02/15 09:01:02;;;;;;;18.70;8.73;;;5.90;99.90;;;;;;5082182;28;20249;-80
2022/02/15 09:03:31;;;;;;;26.70;11.90;;;6.00;99.90;;;;;;5050662;28;20623;-80
2022/02/15 09:06:00;;;;;;;26.83;9.73;;;6.00;99.90;;;;;;5043998;28;20204;-80
2022/02/15 09:08:32;;;;;;;21.33;9.33;;;6.00;99.90;;;;;;5049154;28;20222;-81
2022/02/15 09:10:59;;;;;;;19.90;8.80;;;6.10;99.90;;;;;;5048658;28;20198;-82
2022/02/15 09:13:26;;;;;;;16.47;7.70;;;6.10;99.90;;;;;;5047553;28;20267;-80
2022/02/15 09:15:54;;;;;;;15.37;7.83;;;6.10;99.90;;;;;;5056314;28;20206;-81
2022/02/15 09:18:21;;;;;;;13.00;7.40;;;6.10;99.90;;;;;;5047160;28;20215;-81
2022/02/15 09:20:51;;;;;;;16.77;8.57;;;5.40;99.90;;;;;;5052275;28;20224;-81
2022/02/15 09:23:18;;;;;;;18.57;8.57;;;6.10;99.90;;;;;;5054789;28;20226;-81
2022/02/15 09:25:47;;;;;;;22.83;10.47;;;6.10;99.90;;;;;;5054197;28;20202;-80
2022/02/15 09:28:16;;;;;;;20.50;9.70;;;6.10;99.90;;;;;;5047984;28;20206;-80
2022/02/15 09:30:43;;;;;;;20.83;9.73;;;6.10;99.90;;;;;;5052591;28;20214;-81
2022/02/15 09:33:13;;;;;;;21.33;10.03;;;6.20;99.90;;;;;;5048339;28;20203;-80
2022/02/15 09:35:42;;;;;;;23.83;11.00;;;5.90;99.90;;;;;;5060588;28;20266;-79
2022/02/15 09:38:10;;;;;;;22.97;10.60;;;6.20;99.90;;;;;;5048903;28;20605;-80
2022/02/15 09:40:38;;;;;;;21.87;10.53;;;6.30;99.90;;;;;;5064030;28;20214;-80
2022/02/15 09:43:06;;;;;;;20.07;9.90;;;6.40;99.90;;;;;;5056989;28;20215;-80
2022/02/15 09:45:35;;;;;;;16.63;8.73;;;6.40;99.90;;;;;;5041704;28;20246;-81
2022/02/15 09:48:09;;;;;;;19.83;9.63;;;6.50;99.90;;;;;;5045004;28;20229;-80
2022/02/15 09:50:37;;;;;;;35.40;16.60;;;6.50;99.90;;;;;;5039684;28;20211;-80
2022/02/15 09:53:04;;;;;;;31.07;15.23;;;6.50;99.90;;;;;;5056083;28;20222;-80
2022/02/15 09:55:33;;;;;;;30.30;15.53;;;6.60;99.90;;;;;;5049139;28;20203;-81
2022/02/15 09:58:00;;;;;;;24.17;12.83;;;6.70;99.90;;;;;;5053550;28;20239;-82
2022/02/15 10:00:30;;;;;;;23.40;12.80;;;6.80;99.90;;;;;;5051048;28;20572;-83
2022/02/15 10:03:26;;;;;;;23.87;11.67;;;6.80;99.90;;;;;;5053500;28;20230;-90
2022/02/15 10:05:53;;;;;;;18.73;9.20;;;6.20;99.90;;;;;;5041682;28;20529;-86
2022/02/15 10:08:30;;;;;;;19.50;9.23;;;7.10;99.90;;;;;;5050496;28;20219;-85
2022/02/15 10:11:08;;;;;;;33.17;13.17;;;7.10;99.90;;;;;;5053162;28;20328;-80
2022/02/15 10:13:44;;;;;;;24.33;12.07;;;7.20;99.90;;;;;;5051786;28;20329;-80
2022/02/15 10:16:12;;;;;;;24.10;11.27;;;7.30;99.90;;;;;;5047422;28;20478;-81
2022/02/15 10:18:41;;;;;;;25.57;11.93;;;7.20;99.90;;;;;;5049704;28;20658;-80
2022/02/15 10:21:28;;;;;;;19.47;9.70;;;7.20;99.90;;;;;;5056211;28;20233;-81
2022/02/15 10:24:19;;;;;;;15.07;8.60;;;7.10;99.90;;;;;;5049271;28;20199;-81
2022/02/15 10:26:59;;;;;;;18.27;8.67;;;7.00;99.90;;;;;;5094772;28;20212;-81
2022/02/15 10:29:28;;;;;;;16.77;8.63;;;7.00;99.90;;;;;;5069630;28;20222;-82
2022/02/15 10:31:56;;;;;;;17.57;9.07;;;6.60;99.90;;;;;;5063922;28;20236;-81
2022/02/15 10:34:24;;;;;;;21.90;11.00;;;7.10;99.90;;;;;;5059637;28;20212;-81
2022/02/15 10:37:04;;;;;;;17.33;9.87;;;7.10;99.90;;;;;;5053719;28;20241;-81
2022/02/15 10:39:40;;;;;;;17.10;9.63;;;7.20;99.90;;;;;;5052232;28;20199;-81
2022/02/15 10:42:11;;;;;;;16.73;9.10;;;7.30;99.90;;;;;;5052374;28;20245;-81
2022/02/15 10:44:54;;;;;;;15.03;8.50;;;7.50;99.90;;;;;;5048459;28;20206;-81
2022/02/15 10:47:22;;;;;;;23.33;11.73;;;7.60;99.90;;;;;;5049938;28;20213;-82
2022/02/15 10:49:53;;;;;;;33.87;15.63;;;7.60;99.90;;;;;;5046627;28;20207;-81
2022/02/15 10:52:21;;;;;;;27.47;14.40;;;7.70;99.90;;;;;;5043455;28;20204;-81
2022/02/15 10:54:51;;;;;;;35.17;17.03;;;7.70;99.90;;;;;;5051424;28;20197;-81
2022/02/15 10:57:23;;;;;;;31.07;14.93;;;7.80;99.90;;;;;;5050699;28;20289;-80
2022/02/15 10:59:52;;;;;;;28.23;14.27;;;7.90;99.90;;;;;;5050989;28;20208;-80
2022/02/15 11:02:22;;;;;;;25.90;12.37;;;8.10;99.90;;;;;;5051630;28;20213;-81
2022/02/15 11:04:50;;;;;;;23.47;11.57;;;8.30;99.90;;;;;;5050131;28;20185;-82
2022/02/15 11:07:19;;;;;;;32.00;14.67;;;8.40;99.90;;;;;;5050823;28;20731;-81
2022/02/15 11:10:04;;;;;;;25.87;12.70;;;8.50;99.90;;;;;;5054806;28;20212;-81
2022/02/15 11:12:42;;;;;;;21.20;11.50;;;8.70;99.90;;;;;;5054496;28;20189;-80
2022/02/15 11:15:12;;;;;;;19.80;10.30;;;8.60;99.90;;;;;;5052824;28;20296;-80
2022/02/15 11:17:47;;;;;;;20.37;10.40;;;8.90;99.90;;;;;;5054337;28;20304;-81
2022/02/15 11:20:19;;;;;;;23.67;11.83;;;9.10;99.90;;;;;;5054942;28;20197;-79
2022/02/15 11:22:48;;;;;;;24.00;12.63;;;9.20;99.90;;;;;;5051893;28;20225;-82
2022/02/15 11:25:15;;;;;;;19.10;10.63;;;9.40;99.90;;;;;;5053704;28;20209;-81
2022/02/15 11:27:51;;;;;;;17.37;9.70;;;9.50;99.90;;;;;;5050703;28;20206;-81
2022/02/15 11:30:19;;;;;;;16.73;8.80;;;9.50;99.90;;;;;;5051373;28;20198;-81
2022/02/15 11:32:48;;;;;;;15.87;8.70;;;9.50;99.90;;;;;;5051042;28;20229;-82
2022/02/15 11:35:18;;;;;;;17.60;9.07;;;9.50;99.90;;;;;;5044279;28;20198;-81
2022/02/15 11:37:45;;;;;;;17.93;9.47;;;9.60;99.90;;;;;;5043418;28;20191;-82
2022/02/15 11:40:15;;;;;;;18.30;9.73;;;9.70;99.90;;;;;;5051536;28;20198;-80
2022/02/15 11:42:47;;;;;;;15.37;9.07;;;9.70;99.90;;;;;;5045444;28;20196;-81
2022/02/15 11:45:19;;;;;;;33.37;13.90;;;9.70;99.90;;;;;;5044102;28;20643;-81
2022/02/15 11:47:47;;;;;;;27.63;14.07;;;9.80;99.90;;;;;;5050616;28;20194;-80
2022/02/15 11:50:16;;;;;;;27.10;13.37;;;9.80;99.90;;;;;;5056633;28;20637;-81
2022/02/15 11:52:47;;;;;;;20.13;10.57;;;9.90;99.90;;;;;;5048645;28;20237;-82
2022/02/15 11:55:16;;;;;;;16.40;9.57;;;10.00;99.90;;;;;;5048457;28;20209;-83
2022/02/15 11:57:48;;;;;;;17.53;9.57;;;10.10;99.90;;;;;;5051461;28;20289;-82
2022/02/15 12:00:17;;;;;;;25.40;12.47;;;10.20;99.90;;;;;;5043897;28;20534;-82
2022/02/15 12:02:56;;;;;;;20.37;10.73;;;10.30;99.90;;;;;;5052172;28;20720;-82
2022/02/15 12:05:27;;;;;;;19.30;10.17;;;10.40;99.90;;;;;;5048588;28;20196;-83
2022/02/15 12:07:55;;;;;;;16.40;9.13;;;10.50;99.90;;;;;;5054154;28;20193;-83
2022/02/15 12:10:24;;;;;;;14.63;8.53;;;10.60;99.90;;;;;;5046616;28;20235;-82
2022/02/15 12:12:52;;;;;;;30.43;14.27;;;10.70;99.90;;;;;;5073346;28;20220;-82
2022/02/15 12:15:22;;;;;;;20.77;11.20;;;10.80;99.90;;;;;;5048757;28;20221;-82
2022/02/15 12:17:50;;;;;;;17.67;9.20;;;10.80;99.90;;;;;;5045267;28;20303;-81
2022/02/15 12:20:21;;;;;;;26.63;11.87;;;10.90;99.90;;;;;;5046731;28;20393;-82
2022/02/15 12:22:50;;;;;;;23.50;11.63;;;11.00;99.90;;;;;;5048758;28;20249;-82
2022/02/15 12:25:50;;;;;;;20.07;9.67;;;10.30;99.70;;;;;;5047225;28;20244;-82
2022/02/15 12:28:28;;;;;;;16.13;7.30;;;11.10;99.30;;;;;;5050440;28;20231;-82
2022/02/15 12:30:57;;;;;;;16.23;7.57;;;11.10;99.30;;;;;;5046753;28;20699;-82
2022/02/15 12:33:34;;;;;;;13.00;7.03;;;11.20;99.00;;;;;;5047134;28;20194;-82
2022/02/15 12:36:01;;;;;;;16.73;8.53;;;11.20;98.60;;;;;;5042111;28;20203;-82
2022/02/15 12:38:43;;;;;;;16.30;7.83;;;11.20;97.90;;;;;;5048544;28;20262;-82
2022/02/15 12:41:15;;;;;;;14.67;7.50;;;11.50;97.80;;;;;;5049675;28;20197;-81
2022/02/15 12:43:42;;;;;;;11.60;6.50;;;11.20;96.60;;;;;;5037107;28;20698;-81
2022/02/15 12:46:14;;;;;;;10.20;5.70;;;11.20;97.10;;;;;;5047851;28;20659;-82
2022/02/15 12:48:42;;;;;;;13.07;7.17;;;11.30;97.20;;;;;;5036380;28;20202;-81
2022/02/15 12:51:10;;;;;;;12.53;7.70;;;11.40;96.80;;;;;;5046634;28;20567;-82
2022/02/15 12:53:38;;;;;;;19.20;9.03;;;11.50;96.60;;;;;;5049096;28;20284;-81
2022/02/15 12:56:11;;;;;;;14.23;7.20;;;11.50;96.30;;;;;;5048937;28;20671;-82
2022/02/15 12:58:40;;;;;;;13.17;7.17;;;11.50;96.60;;;;;;5047670;28;20223;-81
2022/02/15 13:01:11;;;;;;;15.93;8.23;;;11.50;96.80;;;;;;5050481;28;20252;-81
2022/02/15 13:03:48;;;;;;;18.93;10.20;;;11.60;96.80;;;;;;5037835;28;20297;-82
2022/02/15 13:06:17;;;;;;;26.13;10.23;;;11.80;96.50;;;;;;5048568;28;20200;-81
2022/02/15 13:08:45;;;;;;;24.00;10.33;;;11.50;96.30;;;;;;5048029;28;20207;-82
2022/02/15 13:11:12;;;;;;;19.23;10.10;;;11.40;96.30;;;;;;5054891;28;20189;-81